Time;durP1;ratioP1;P1;durP2;ratioP2;P2;SDS_P1;SDS_P2;PMS_P1;PMS_P2;Temp;Humidity;BMP_temperature;BMP_pressure;BME280_temperature;BME280_humidity;BME280_pressure;Samples;Min_cycle;Max_cycle;Signal;HPM_P1;HPM_P2
2021/01/04 00:00:01;;;;;;;18.13;12.97;;;3.20;99.90;;;;;;5093700;28;20194;-72
2021/01/04 00:02:36;;;;;;;19.67;14.23;;;3.20;99.90;;;;;;5093171;28;20197;-72
2021/01/04 00:05:29;;;;;;;18.50;14.37;;;3.20;99.90;;;;;;5093430;28;20196;-73
2021/01/04 00:08:36;;;;;;;17.63;13.43;;;3.20;99.90;;;;;;5093276;28;20281;-73
2021/01/04 00:11:28;;;;;;;20.83;13.93;;;3.20;99.90;;;;;;5033019;28;20225;-72
2021/01/04 00:14:03;;;;;;;17.73;13.43;;;3.20;99.90;;;;;;5093154;28;20667;-71
2021/01/04 00:16:37;;;;;;;17.10;13.73;;;3.20;99.90;;;;;;5097323;28;20201;-72
2021/01/04 00:19:09;;;;;;;20.23;13.20;;;3.30;99.90;;;;;;5097615;28;20200;-71
2021/01/04 00:21:46;;;;;;;15.10;12.53;;;3.20;99.90;;;;;;5097323;28;20285;-72
2021/01/04 00:24:18;;;;;;;17.63;14.07;;;3.20;99.90;;;;;;5097409;28;20193;-73
2021/01/04 00:26:50;;;;;;;18.67;13.60;;;3.20;99.90;;;;;;5097236;28;20222;-73
2021/01/04 00:29:20;;;;;;;17.33;13.47;;;3.20;99.90;;;;;;5097094;28;20202;-75
2021/01/04 00:31:52;;;;;;;16.27;13.20;;;3.20;99.90;;;;;;5097123;28;20198;-71
2021/01/04 00:34:23;;;;;;;16.17;13.30;;;3.20;99.90;;;;;;5100312;28;20198;-73
2021/01/04 00:37:32;;;;;;;17.70;13.93;;;3.20;99.90;;;;;;5116319;28;20202;-73
2021/01/04 00:40:04;;;;;;;15.90;12.80;;;3.10;99.90;;;;;;5115266;28;20238;-74
2021/01/04 00:42:38;;;;;;;16.77;13.23;;;3.20;99.90;;;;;;5117797;28;20205;-73
2021/01/04 00:45:11;;;;;;;15.73;12.53;;;3.20;99.90;;;;;;5117245;28;20189;-72
2021/01/04 00:47:51;;;;;;;18.27;13.93;;;3.30;99.90;;;;;;5117197;28;20240;-72
2021/01/04 00:50:26;;;;;;;16.37;12.87;;;3.20;99.90;;;;;;5117403;28;20198;-72
2021/01/04 00:53:03;;;;;;;15.77;12.70;;;3.20;99.90;;;;;;5117211;28;20284;-72
2021/01/04 00:55:51;;;;;;;15.33;12.83;;;3.20;99.90;;;;;;5117067;28;20204;-72
2021/01/04 00:58:37;;;;;;;15.93;12.53;;;3.30;99.90;;;;;;5116913;28;20201;-72
2021/01/04 01:01:12;;;;;;;18.23;13.43;;;3.30;99.90;;;;;;5116900;28;20200;-74
2021/01/04 01:04:01;;;;;;;18.37;12.50;;;3.30;99.90;;;;;;5117344;28;20214;-72
2021/01/04 01:06:33;;;;;;;16.37;12.20;;;3.40;99.90;;;;;;5116813;28;20759;-72
2021/01/04 01:09:01;;;;;;;19.23;13.90;;;3.20;99.90;;;;;;5116975;28;20194;-73
2021/01/04 01:11:59;;;;;;;18.10;14.23;;;3.10;99.90;;;;;;5116422;28;20208;-72
2021/01/04 01:14:30;;;;;;;16.60;13.87;;;3.20;99.90;;;;;;5116912;28;20565;-72
2021/01/04 01:17:30;;;;;;;19.93;13.57;;;3.20;99.90;;;;;;5117168;28;20201;-72
2021/01/04 01:20:00;;;;;;;18.57;13.80;;;3.10;99.90;;;;;;5116276;28;20266;-72
2021/01/04 01:22:29;;;;;;;19.27;14.13;;;3.20;99.90;;;;;;5115377;28;20189;-72
2021/01/04 01:24:59;;;;;;;17.63;14.13;;;3.20;99.90;;;;;;5116357;28;20200;-72
2021/01/04 01:27:46;;;;;;;19.07;14.17;;;3.20;99.90;;;;;;5116455;28;20243;-72
2021/01/04 01:30:43;;;;;;;18.90;14.47;;;3.10;99.90;;;;;;5116452;28;20189;-73
2021/01/04 01:33:29;;;;;;;20.93;14.83;;;3.10;99.90;;;;;;5116384;28;20280;-73
2021/01/04 01:36:04;;;;;;;20.20;14.50;;;3.00;99.90;;;;;;5116685;28;20197;-73
2021/01/04 01:38:56;;;;;;;20.27;15.00;;;3.00;99.90;;;;;;5116033;28;20221;-73
2021/01/04 01:41:59;;;;;;;22.87;15.17;;;3.10;99.90;;;;;;5116360;28;20209;-72
2021/01/04 01:44:29;;;;;;;22.63;15.97;;;3.10;99.90;;;;;;5116275;28;20201;-72
2021/01/04 01:47:01;;;;;;;22.37;16.67;;;3.10;99.90;;;;;;5116066;28;20217;-72
2021/01/04 01:49:56;;;;;;;22.63;17.20;;;3.10;99.90;;;;;;5116229;28;20207;-72
2021/01/04 01:52:39;;;;;;;22.13;16.30;;;3.00;99.90;;;;;;5112863;28;20190;-72
2021/01/04 01:55:30;;;;;;;22.17;15.77;;;3.00;99.90;;;;;;5116137;28;20193;-73
2021/01/04 01:58:20;;;;;;;25.50;16.77;;;3.00;99.90;;;;;;5116241;28;20194;-72
2021/01/04 02:00:50;;;;;;;24.77;17.93;;;3.00;99.90;;;;;;5116324;28;20280;-71
2021/01/04 02:03:23;;;;;;;24.97;18.17;;;2.90;99.90;;;;;;5115847;28;20211;-71
2021/01/04 02:06:26;;;;;;;25.40;17.47;;;2.90;99.90;;;;;;5115720;28;20204;-71
2021/01/04 02:09:00;;;;;;;22.73;15.77;;;2.90;99.90;;;;;;5095225;28;20201;-71
2021/01/04 02:11:35;;;;;;;23.13;16.83;;;2.90;99.90;;;;;;5116111;28;20193;-71
2021/01/04 02:14:08;;;;;;;22.57;16.73;;;2.90;99.90;;;;;;5115700;28;20556;-71
2021/01/04 02:16:40;;;;;;;24.00;17.27;;;2.90;99.90;;;;;;5115800;28;20253;-71
2021/01/04 02:19:28;;;;;;;22.97;16.23;;;2.90;99.90;;;;;;5116129;28;20205;-72
2021/01/04 02:22:24;;;;;;;24.13;16.07;;;2.90;99.90;;;;;;5115771;28;20284;-72
2021/01/04 02:24:51;;;;;;;23.20;16.93;;;2.90;99.90;;;;;;5115751;28;20197;-71
2021/01/04 02:27:22;;;;;;;22.93;15.77;;;2.90;99.90;;;;;;5115324;28;20221;-71
2021/01/04 02:29:50;;;;;;;22.57;16.20;;;2.90;99.90;;;;;;5115574;28;20193;-72
2021/01/04 02:32:16;;;;;;;23.27;17.73;;;3.00;99.90;;;;;;5115429;28;20222;-71
2021/01/04 02:34:47;;;;;;;24.33;17.17;;;2.90;99.90;;;;;;5114816;28;20189;-72
2021/01/04 02:37:15;;;;;;;22.13;17.07;;;2.90;99.90;;;;;;5115317;28;20258;-72
2021/01/04 02:39:48;;;;;;;27.23;17.80;;;3.10;99.90;;;;;;5115306;28;20270;-72
2021/01/04 02:42:17;;;;;;;23.07;17.07;;;2.80;99.90;;;;;;5115140;28;20258;-71
2021/01/04 02:44:45;;;;;;;23.60;15.97;;;2.90;99.90;;;;;;5115020;28;20194;-72
2021/01/04 02:47:22;;;;;;;23.07;16.83;;;2.90;99.90;;;;;;5114833;28;20228;-72
2021/01/04 02:49:55;;;;;;;22.07;17.10;;;2.90;99.90;;;;;;5114881;28;20193;-71
2021/01/04 02:52:31;;;;;;;21.23;15.70;;;2.80;99.90;;;;;;5115155;28;20188;-71
2021/01/04 02:55:02;;;;;;;23.10;16.53;;;3.00;99.90;;;;;;5114971;28;20223;-74
2021/01/04 02:57:37;;;;;;;22.97;17.17;;;2.90;99.90;;;;;;5115095;28;20194;-71
2021/01/04 03:00:09;;;;;;;21.07;15.97;;;2.90;99.90;;;;;;5115052;28;20253;-71
2021/01/04 03:02:40;;;;;;;23.50;16.50;;;2.90;99.90;;;;;;5114720;28;20197;-72
2021/01/04 03:05:09;;;;;;;26.27;15.80;;;2.80;99.90;;;;;;5115034;28;20193;-72
2021/01/04 03:07:36;;;;;;;24.83;16.43;;;2.90;99.90;;;;;;5114599;28;20576;-72
2021/01/04 03:10:12;;;;;;;21.57;16.50;;;2.90;99.90;;;;;;5114702;28;20200;-72
2021/01/04 03:12:39;;;;;;;26.10;17.37;;;2.90;99.90;;;;;;5114475;28;20544;-72
2021/01/04 03:15:19;;;;;;;26.77;17.07;;;2.80;99.90;;;;;;5114418;28;20207;-72
2021/01/04 03:17:59;;;;;;;26.87;17.10;;;2.80;99.90;;;;;;5114371;28;20201;-72
2021/01/04 03:20:27;;;;;;;26.10;17.13;;;2.80;99.90;;;;;;5114532;28;20197;-72
2021/01/04 03:22:54;;;;;;;22.77;17.17;;;2.80;99.90;;;;;;5114289;28;20220;-72
2021/01/04 03:25:31;;;;;;;24.13;16.40;;;2.80;99.90;;;;;;5114220;28;20200;-72
2021/01/04 03:27:59;;;;;;;25.07;18.17;;;2.90;99.90;;;;;;5114180;28;20713;-72
2021/01/04 03:30:28;;;;;;;25.80;18.27;;;2.90;99.90;;;;;;5113933;28;20197;-73
2021/01/04 03:32:54;;;;;;;26.57;18.10;;;2.90;99.90;;;;;;5114121;28;20197;-72
2021/01/04 03:35:22;;;;;;;26.50;17.37;;;2.80;99.90;;;;;;5113887;28;20193;-73
2021/01/04 03:37:48;;;;;;;28.43;19.60;;;2.80;99.90;;;;;;5114186;28;20349;-72
2021/01/04 03:40:15;;;;;;;24.60;17.67;;;2.80;99.90;;;;;;5114359;28;20284;-73
2021/01/04 03:42:42;;;;;;;27.20;17.80;;;2.80;99.90;;;;;;5114139;28;20203;-73
2021/01/04 03:45:10;;;;;;;24.53;18.23;;;2.80;99.90;;;;;;5113192;28;20202;-72
2021/01/04 03:47:37;;;;;;;28.37;18.30;;;2.80;99.90;;;;;;5113753;28;20633;-73
2021/01/04 03:50:06;;;;;;;26.07;18.70;;;2.80;99.90;;;;;;5113762;28;20280;-72
2021/01/04 03:52:32;;;;;;;27.60;18.30;;;2.60;99.90;;;;;;5114030;28;20193;-72
2021/01/04 03:54:58;;;;;;;27.10;18.63;;;2.80;99.90;;;;;;5113987;28;20242;-72
2021/01/04 03:57:25;;;;;;;26.70;17.87;;;2.70;99.90;;;;;;5113833;28;20197;-72
2021/01/04 03:59:51;;;;;;;27.87;19.20;;;2.70;99.90;;;;;;5113600;28;20202;-72
2021/01/04 04:02:20;;;;;;;27.50;18.70;;;2.70;99.90;;;;;;5113721;28;20246;-73
2021/01/04 04:04:46;;;;;;;25.17;17.50;;;2.70;99.90;;;;;;5113929;28;20196;-72
2021/01/04 04:07:13;;;;;;;27.67;17.73;;;2.70;99.90;;;;;;5113997;28;20221;-73
2021/01/04 04:09:39;;;;;;;25.87;18.13;;;2.70;99.90;;;;;;5113997;28;20193;-73
2021/01/04 04:12:06;;;;;;;26.53;18.37;;;2.70;99.90;;;;;;5113723;28;20246;-73
2021/01/04 04:14:33;;;;;;;26.50;18.80;;;2.70;99.90;;;;;;5113934;28;20198;-74
2021/01/04 04:16:59;;;;;;;29.87;19.00;;;2.70;99.90;;;;;;5113568;28;20198;-74
2021/01/04 04:19:26;;;;;;;28.17;19.67;;;2.70;99.90;;;;;;5114309;28;20193;-73
2021/01/04 04:21:53;;;;;;;29.83;17.90;;;2.70;99.90;;;;;;5113814;28;20196;-74
2021/01/04 04:24:20;;;;;;;29.33;18.63;;;2.70;99.90;;;;;;5113903;28;20193;-73
2021/01/04 04:26:47;;;;;;;25.93;17.97;;;2.70;99.90;;;;;;5113250;28;20306;-72
2021/01/04 04:29:14;;;;;;;25.03;17.40;;;2.70;99.90;;;;;;5113570;28;20198;-73
2021/01/04 04:31:44;;;;;;;29.30;17.60;;;2.70;99.90;;;;;;5113414;28;20288;-72
2021/01/04 04:34:11;;;;;;;27.10;19.00;;;2.70;99.90;;;;;;5113494;28;20215;-73
2021/01/04 04:36:41;;;;;;;25.43;17.47;;;2.70;99.90;;;;;;5113503;28;20201;-73
2021/01/04 04:39:07;;;;;;;27.13;17.20;;;2.60;99.90;;;;;;5113449;28;20680;-73
2021/01/04 04:41:39;;;;;;;26.57;16.97;;;2.80;99.90;;;;;;5113353;28;20254;-72
2021/01/04 04:44:10;;;;;;;26.27;17.53;;;2.60;99.90;;;;;;5113292;28;20190;-73
2021/01/04 04:47:01;;;;;;;24.07;17.10;;;2.60;99.90;;;;;;5113181;28;20225;-73
2021/01/04 04:49:56;;;;;;;28.40;18.50;;;2.70;99.90;;;;;;5113100;28;20201;-73
2021/01/04 04:52:52;;;;;;;26.40;16.87;;;2.60;99.90;;;;;;5113134;28;20653;-73
2021/01/04 04:55:31;;;;;;;27.93;17.43;;;2.50;99.90;;;;;;5078329;28;20193;-73
2021/01/04 04:58:11;;;;;;;26.03;17.43;;;2.50;99.90;;;;;;5116562;28;20201;-72
2021/01/04 05:01:05;;;;;;;26.40;16.80;;;2.50;99.90;;;;;;5116769;28;20652;-73
2021/01/04 05:03:52;;;;;;;25.17;17.10;;;2.50;99.90;;;;;;5109227;28;20194;-73
2021/01/04 05:06:38;;;;;;;26.27;18.03;;;2.50;99.90;;;;;;5117070;28;20221;-72
2021/01/04 05:09:51;;;;;;;26.90;17.73;;;2.40;99.90;;;;;;5116772;28;20193;-72
2021/01/04 05:12:28;;;;;;;25.77;17.57;;;2.50;99.90;;;;;;5116473;28;20226;-72
2021/01/04 05:14:58;;;;;;;27.30;18.40;;;2.50;99.90;;;;;;5116752;28;20667;-73
2021/01/04 05:17:46;;;;;;;25.40;17.80;;;2.40;99.90;;;;;;5116611;28;20215;-73
2021/01/04 05:20:22;;;;;;;29.20;19.10;;;2.50;99.90;;;;;;5116676;28;20640;-72
2021/01/04 05:23:23;;;;;;;27.30;18.40;;;2.50;99.90;;;;;;5116797;28;20578;-73
2021/01/04 05:26:29;;;;;;;29.50;19.60;;;2.50;99.90;;;;;;5116397;28;20193;-72
2021/01/04 05:29:34;;;;;;;28.20;18.20;;;2.50;99.90;;;;;;5114994;28;20300;-72
2021/01/04 05:32:14;;;;;;;28.27;18.63;;;2.40;99.90;;;;;;5116279;28;20198;-74
2021/01/04 05:34:43;;;;;;;35.97;20.53;;;2.50;99.90;;;;;;5116254;28;20197;-74
2021/01/04 05:37:31;;;;;;;28.67;18.73;;;2.50;99.90;;;;;;5116456;28;20202;-74
2021/01/04 05:40:17;;;;;;;28.67;19.47;;;2.40;99.90;;;;;;5116072;28;20201;-74
2021/01/04 05:42:56;;;;;;;33.87;20.17;;;2.40;99.90;;;;;;5116545;28;20209;-74
2021/01/04 05:45:27;;;;;;;27.80;19.00;;;2.30;99.90;;;;;;5116346;28;20197;-73
2021/01/04 05:48:03;;;;;;;28.90;19.53;;;2.50;99.90;;;;;;5116028;28;20316;-73
2021/01/04 05:50:38;;;;;;;28.90;19.57;;;2.50;99.90;;;;;;5116139;28;20189;-74
2021/01/04 05:53:04;;;;;;;28.23;19.87;;;2.30;99.90;;;;;;5115953;28;20201;-73
2021/01/04 05:55:31;;;;;;;34.07;19.53;;;2.50;99.90;;;;;;5115884;28;20540;-74
2021/01/04 05:57:58;;;;;;;31.33;19.87;;;2.50;99.90;;;;;;5116135;28;20193;-73
2021/01/04 06:00:30;;;;;;;32.07;20.43;;;3.20;99.90;;;;;;5116061;28;20284;-73
2021/01/04 06:03:11;;;;;;;36.60;20.90;;;2.40;99.90;;;;;;5115846;28;20194;-74
2021/01/04 06:05:38;;;;;;;33.70;21.40;;;2.40;99.90;;;;;;5115610;28;20200;-75
2021/01/04 06:08:06;;;;;;;32.60;20.57;;;2.40;99.90;;;;;;5115310;28;20226;-74
2021/01/04 06:10:34;;;;;;;34.40;20.27;;;2.50;99.90;;;;;;5115802;28;20348;-74
2021/01/04 06:13:03;;;;;;;30.77;20.17;;;2.50;99.90;;;;;;5115617;28;20200;-74
2021/01/04 06:15:32;;;;;;;30.23;20.67;;;2.50;99.90;;;;;;5115639;28;20194;-75
2021/01/04 06:18:04;;;;;;;34.70;21.40;;;2.50;99.90;;;;;;5115519;28;20289;-75
2021/01/04 06:21:16;;;;;;;33.63;21.17;;;2.50;99.90;;;;;;5115417;28;20668;-74
2021/01/04 06:23:43;;;;;;;33.40;21.23;;;2.50;99.90;;;;;;5032788;28;20200;-74
2021/01/04 06:26:15;;;;;;;31.80;21.17;;;2.40;99.90;;;;;;5105289;28;20640;-74
2021/01/04 06:28:53;;;;;;;31.67;21.40;;;2.50;99.90;;;;;;5115742;28;20197;-74
2021/01/04 06:31:28;;;;;;;30.70;19.93;;;2.40;99.90;;;;;;5115805;28;20194;-74
2021/01/04 06:34:01;;;;;;;33.57;21.57;;;2.50;99.90;;;;;;5115123;28;20193;-74
2021/01/04 06:36:30;;;;;;;30.00;20.67;;;2.50;99.90;;;;;;5115095;28;20205;-74
2021/01/04 06:39:08;;;;;;;33.27;20.97;;;2.50;99.90;;;;;;5115018;28;20193;-74
2021/01/04 06:41:35;;;;;;;32.77;22.50;;;2.50;99.90;;;;;;5115223;28;20201;-74
2021/01/04 06:44:12;;;;;;;33.23;20.90;;;2.50;99.90;;;;;;5115313;28;20196;-73
2021/01/04 06:47:04;;;;;;;34.00;22.33;;;2.50;99.90;;;;;;5114992;28;20228;-74
2021/01/04 06:49:38;;;;;;;32.50;21.43;;;2.50;99.90;;;;;;5078526;28;20198;-74
2021/01/04 06:52:41;;;;;;;32.70;22.53;;;2.50;99.90;;;;;;5114869;28;20200;-73
2021/01/04 06:55:33;;;;;;;35.33;22.10;;;2.50;99.90;;;;;;5114880;28;20193;-74
2021/01/04 06:58:30;;;;;;;35.13;21.20;;;2.50;99.90;;;;;;5114814;28;20200;-74
2021/01/04 07:01:26;;;;;;;31.70;21.27;;;2.50;99.90;;;;;;5114957;28;20200;-74
2021/01/04 07:04:08;;;;;;;34.97;20.40;;;2.50;99.90;;;;;;5114644;28;20292;-74
2021/01/04 07:07:07;;;;;;;32.00;21.17;;;2.50;99.90;;;;;;5114420;28;20709;-74
2021/01/04 07:10:05;;;;;;;31.60;19.93;;;2.50;99.90;;;;;;5114546;28;20216;-75
2021/01/04 07:12:59;;;;;;;33.43;20.87;;;2.50;99.90;;;;;;5114473;28;20254;-75
2021/01/04 07:15:29;;;;;;;31.67;21.23;;;2.50;99.90;;;;;;5114419;28;20201;-74
2021/01/04 07:18:20;;;;;;;36.77;22.83;;;2.50;99.90;;;;;;5114470;28;20201;-76
2021/01/04 07:21:12;;;;;;;34.93;22.00;;;2.60;99.90;;;;;;5113924;28;20197;-75
2021/01/04 07:24:20;;;;;;;37.23;21.77;;;2.50;99.90;;;;;;5114669;28;20190;-74
2021/01/04 07:27:18;;;;;;;36.43;23.50;;;2.50;99.90;;;;;;5053276;28;20312;-74
2021/01/04 07:30:15;;;;;;;38.03;22.10;;;2.50;99.90;;;;;;5093526;28;20193;-74
2021/01/04 07:32:48;;;;;;;40.50;21.97;;;2.60;99.90;;;;;;5114256;28;20272;-74
2021/01/04 07:35:19;;;;;;;36.77;21.87;;;2.50;99.90;;;;;;5114206;28;20590;-74
2021/01/04 07:37:56;;;;;;;38.23;23.00;;;2.50;99.90;;;;;;5114564;28;20216;-74
2021/01/04 07:40:52;;;;;;;35.47;22.90;;;2.50;99.90;;;;;;5114161;28;20540;-74
2021/01/04 07:43:51;;;;;;;34.97;22.23;;;2.50;99.90;;;;;;5114065;28;20567;-74
2021/01/04 07:46:53;;;;;;;37.33;23.93;;;2.60;99.90;;;;;;5113983;28;20203;-74
2021/01/04 07:49:53;;;;;;;39.50;23.60;;;2.60;99.90;;;;;;5113918;28;20197;-74
2021/01/04 07:52:49;;;;;;;40.27;24.90;;;2.60;99.90;;;;;;5113996;28;20194;-75
2021/01/04 07:55:50;;;;;;;38.73;23.77;;;2.60;99.90;;;;;;5114135;28;20200;-74
2021/01/04 07:58:50;;;;;;;41.63;23.83;;;2.60;99.90;;;;;;5113728;28;20204;-73
2021/01/04 08:01:46;;;;;;;44.07;26.70;;;2.60;99.90;;;;;;5079842;28;20565;-74
2021/01/04 08:04:36;;;;;;;42.80;26.57;;;2.60;99.90;;;;;;5096334;28;20201;-73
2021/01/04 08:07:54;;;;;;;41.70;25.63;;;2.50;99.90;;;;;;5113501;28;20582;-73
2021/01/04 08:10:47;;;;;;;41.63;25.60;;;2.60;99.90;;;;;;5106591;28;20289;-74
2021/01/04 08:13:58;;;;;;;43.77;25.97;;;2.70;99.90;;;;;;5113728;28;20217;-74
2021/01/04 08:16:28;;;;;;;41.63;25.73;;;2.50;99.90;;;;;;5113568;28;20193;-74
2021/01/04 08:18:57;;;;;;;42.87;26.13;;;2.60;99.90;;;;;;5113431;28;20546;-74
2021/01/04 08:21:32;;;;;;;43.43;26.53;;;2.70;99.90;;;;;;5113351;28;20697;-73
2021/01/04 08:24:06;;;;;;;43.07;25.53;;;2.60;99.90;;;;;;5113318;28;20671;-73
2021/01/04 08:27:17;;;;;;;41.20;25.47;;;2.60;99.90;;;;;;5112912;28;20218;-73
2021/01/04 08:29:54;;;;;;;45.23;27.77;;;2.60;99.90;;;;;;5076998;28;20280;-73
2021/01/04 08:32:24;;;;;;;44.50;26.50;;;2.60;99.90;;;;;;5115962;28;20197;-73
2021/01/04 08:34:51;;;;;;;37.50;24.50;;;2.70;99.90;;;;;;5117946;28;20197;-73
2021/01/04 08:37:33;;;;;;;39.20;25.83;;;2.60;99.90;;;;;;5117110;28;20559;-73
2021/01/04 08:40:19;;;;;;;39.13;25.23;;;2.60;99.90;;;;;;5117629;28;20245;-73
2021/01/04 08:42:46;;;;;;;35.97;23.60;;;2.60;99.90;;;;;;5117571;28;20201;-72
2021/01/04 08:45:14;;;;;;;39.80;25.97;;;2.70;99.90;;;;;;5117474;28;20202;-72
2021/01/04 08:47:48;;;;;;;39.70;26.10;;;2.70;99.90;;;;;;5117274;28;20221;-73
2021/01/04 08:50:33;;;;;;;36.17;22.73;;;2.70;99.90;;;;;;5117794;28;20295;-73
2021/01/04 08:53:14;;;;;;;34.50;23.57;;;2.60;99.90;;;;;;5117626;28;20205;-73
2021/01/04 08:55:42;;;;;;;35.70;23.97;;;2.70;99.90;;;;;;5117164;28;20238;-72
2021/01/04 08:58:32;;;;;;;34.83;23.97;;;2.70;99.90;;;;;;5117206;28;20202;-73
2021/01/04 09:01:06;;;;;;;34.80;23.57;;;2.60;99.90;;;;;;5114301;28;20201;-73
2021/01/04 09:03:34;;;;;;;32.80;23.43;;;2.60;99.90;;;;;;5117423;28;20489;-73
2021/01/04 09:06:12;;;;;;;32.17;22.13;;;2.70;99.90;;;;;;5115762;28;20338;-73
2021/01/04 09:08:44;;;;;;;34.80;23.13;;;2.70;99.90;;;;;;5116775;28;20217;-73
2021/01/04 09:11:12;;;;;;;30.67;22.27;;;2.70;99.90;;;;;;5117089;28;20197;-74
2021/01/04 09:13:40;;;;;;;37.30;23.67;;;2.60;99.90;;;;;;5117077;28;20202;-73
2021/01/04 09:16:13;;;;;;;33.63;23.83;;;2.50;99.90;;;;;;5116844;28;20193;-73
2021/01/04 09:18:43;;;;;;;33.93;22.40;;;2.60;99.90;;;;;;5116925;28;20610;-73
2021/01/04 09:21:29;;;;;;;33.40;21.10;;;2.60;99.90;;;;;;5116658;28;20284;-74
2021/01/04 09:24:14;;;;;;;32.93;21.93;;;2.60;99.90;;;;;;5104383;28;20229;-74
2021/01/04 09:26:43;;;;;;;32.40;22.13;;;2.70;99.90;;;;;;5112017;28;20278;-73
2021/01/04 09:29:29;;;;;;;31.80;22.73;;;2.70;99.90;;;;;;5111932;28;20969;-73
2021/01/04 09:31:59;;;;;;;35.40;23.30;;;2.70;99.90;;;;;;5112232;28;20194;-72
2021/01/04 09:34:29;;;;;;;34.53;23.70;;;2.70;99.90;;;;;;5113841;28;20197;-73
2021/01/04 09:37:01;;;;;;;34.90;23.07;;;2.70;99.90;;;;;;5114674;28;20213;-72
2021/01/04 09:39:30;;;;;;;33.80;23.30;;;2.70;99.90;;;;;;5114605;28;20205;-75
2021/01/04 09:41:59;;;;;;;33.53;24.03;;;2.80;99.90;;;;;;5114085;28;20217;-74
2021/01/04 09:44:26;;;;;;;35.13;23.70;;;2.70;99.90;;;;;;5113665;28;20291;-73
2021/01/04 09:46:57;;;;;;;34.90;23.80;;;2.70;99.90;;;;;;5114138;28;20221;-73
2021/01/04 09:49:28;;;;;;;33.70;23.27;;;2.70;99.90;;;;;;5114370;28;20212;-75
2021/01/04 09:52:02;;;;;;;32.93;23.73;;;2.60;99.90;;;;;;5110386;28;20200;-73
2021/01/04 09:54:36;;;;;;;32.17;23.50;;;2.70;99.90;;;;;;5110604;28;20211;-75
2021/01/04 09:57:07;;;;;;;33.67;22.93;;;2.90;99.90;;;;;;5114130;28;20204;-74
2021/01/04 09:59:39;;;;;;;34.00;25.13;;;2.70;99.90;;;;;;5114127;28;20201;-72
2021/01/04 10:02:06;;;;;;;33.10;23.97;;;2.80;99.90;;;;;;5113767;28;20752;-73
2021/01/04 10:04:36;;;;;;;31.67;23.13;;;2.80;99.90;;;;;;5113716;28;20536;-72
2021/01/04 10:07:04;;;;;;;31.23;21.00;;;2.90;99.90;;;;;;5113605;28;20614;-73
2021/01/04 10:09:34;;;;;;;30.63;23.37;;;2.90;99.90;;;;;;5113774;28;20205;-74
2021/01/04 10:12:02;;;;;;;31.33;23.13;;;2.90;99.90;;;;;;5114607;28;20190;-73
2021/01/04 10:14:29;;;;;;;34.53;24.13;;;2.80;99.90;;;;;;5113672;28;20203;-73
2021/01/04 10:16:58;;;;;;;31.73;23.53;;;3.00;99.90;;;;;;5113775;28;20288;-72
2021/01/04 10:19:29;;;;;;;31.07;23.27;;;2.80;99.90;;;;;;5115360;28;20203;-73
2021/01/04 10:22:00;;;;;;;34.00;23.87;;;2.80;99.90;;;;;;5115809;28;20190;-75
2021/01/04 10:24:30;;;;;;;34.70;24.47;;;2.90;99.90;;;;;;5116199;28;20225;-72
2021/01/04 10:27:02;;;;;;;34.50;24.20;;;2.90;99.90;;;;;;5115294;28;20217;-73
2021/01/04 10:29:30;;;;;;;37.77;26.00;;;2.90;99.90;;;;;;5115139;28;20202;-74
2021/01/04 10:32:06;;;;;;;36.40;26.57;;;2.90;99.90;;;;;;5115199;28;20193;-73
2021/01/04 10:34:42;;;;;;;38.07;26.13;;;2.90;99.90;;;;;;5114644;28;20193;-73
2021/01/04 10:37:36;;;;;;;35.97;24.93;;;3.00;99.90;;;;;;5112472;28;20205;-73
2021/01/04 10:40:06;;;;;;;34.90;23.63;;;2.90;99.90;;;;;;5112314;28;20766;-73
2021/01/04 10:42:33;;;;;;;35.60;25.33;;;2.90;99.90;;;;;;5115201;28;20201;-73
2021/01/04 10:45:08;;;;;;;37.40;24.87;;;2.90;99.90;;;;;;5115214;28;20216;-72
2021/01/04 10:47:44;;;;;;;37.70;26.43;;;3.00;99.90;;;;;;5114725;28;20213;-72
2021/01/04 10:50:15;;;;;;;33.73;24.03;;;2.90;99.90;;;;;;5115194;28;20281;-72
2021/01/04 10:52:52;;;;;;;33.77;22.93;;;3.00;99.90;;;;;;5114827;28;20200;-72
2021/01/04 10:55:22;;;;;;;33.97;23.77;;;2.90;99.90;;;;;;5114711;28;20201;-72
2021/01/04 10:57:52;;;;;;;34.60;24.47;;;2.90;99.90;;;;;;5114471;28;20227;-72
2021/01/04 11:00:25;;;;;;;34.23;24.33;;;2.90;99.90;;;;;;5114957;28;20197;-72
2021/01/04 11:02:54;;;;;;;34.77;24.20;;;2.90;99.90;;;;;;5114605;28;20202;-72
2021/01/04 11:05:34;;;;;;;32.70;23.73;;;3.00;99.90;;;;;;5114526;28;20648;-72
2021/01/04 11:08:15;;;;;;;34.27;23.33;;;3.00;99.90;;;;;;5114576;28;20217;-73
2021/01/04 11:10:52;;;;;;;34.20;24.37;;;3.00;99.90;;;;;;5115264;28;20525;-72
2021/01/04 11:13:26;;;;;;;32.40;23.60;;;3.00;99.90;;;;;;5114705;28;20201;-72
2021/01/04 11:16:04;;;;;;;34.33;23.57;;;3.10;99.90;;;;;;5114940;28;20191;-72
2021/01/04 11:18:31;;;;;;;34.43;24.93;;;3.10;99.90;;;;;;5114829;28;20201;-72
2021/01/04 11:20:58;;;;;;;32.77;23.57;;;3.20;99.90;;;;;;5114556;28;20223;-72
2021/01/04 11:23:24;;;;;;;31.40;21.53;;;3.20;99.90;;;;;;5114524;28;20193;-72
2021/01/04 11:25:51;;;;;;;31.07;23.67;;;3.20;99.90;;;;;;5114174;28;20288;-72
2021/01/04 11:28:17;;;;;;;32.47;22.80;;;3.20;99.90;;;;;;5114119;28;20221;-73
2021/01/04 11:30:43;;;;;;;31.77;22.50;;;3.20;99.90;;;;;;5113815;28;20200;-73
2021/01/04 11:33:15;;;;;;;31.33;23.20;;;3.20;99.90;;;;;;5114137;28;20300;-73
2021/01/04 11:35:41;;;;;;;29.60;22.57;;;3.30;99.90;;;;;;5114246;28;20200;-72
2021/01/04 11:38:08;;;;;;;32.97;24.30;;;3.20;99.90;;;;;;5114179;28;20205;-72
2021/01/04 11:40:35;;;;;;;34.13;23.60;;;3.30;99.90;;;;;;5113504;28;20194;-72
2021/01/04 11:43:02;;;;;;;30.67;22.40;;;3.20;99.90;;;;;;5113691;28;20207;-73
2021/01/04 11:45:28;;;;;;;29.00;21.93;;;3.20;99.90;;;;;;5113574;28;20317;-73
2021/01/04 11:47:55;;;;;;;32.90;21.77;;;3.20;99.90;;;;;;5113399;28;20217;-73
2021/01/04 11:50:22;;;;;;;31.50;23.13;;;3.30;99.90;;;;;;5113662;28;20193;-72
2021/01/04 11:52:49;;;;;;;31.60;23.20;;;3.30;99.90;;;;;;5100880;28;20201;-75
2021/01/04 11:55:17;;;;;;;30.03;22.67;;;3.30;99.90;;;;;;5104835;28;20213;-73
2021/01/04 11:57:43;;;;;;;32.63;23.60;;;3.30;99.90;;;;;;5106879;28;20205;-73
2021/01/04 12:00:12;;;;;;;31.80;23.70;;;3.30;99.90;;;;;;5108104;28;20197;-73
2021/01/04 12:02:39;;;;;;;32.27;23.50;;;3.20;99.90;;;;;;5107386;28;20197;-73
2021/01/04 12:05:08;;;;;;;31.10;22.57;;;3.30;99.90;;;;;;5107084;28;20198;-73
2021/01/04 12:07:35;;;;;;;31.67;22.30;;;3.20;99.90;;;;;;5106744;28;20229;-73
2021/01/04 12:10:01;;;;;;;34.40;23.80;;;3.30;99.90;;;;;;5107322;28;20284;-73
2021/01/04 12:12:28;;;;;;;34.23;23.73;;;3.30;99.90;;;;;;5108173;28;20200;-74
2021/01/04 12:14:55;;;;;;;38.57;25.57;;;3.20;99.90;;;;;;5108727;28;20193;-73
2021/01/04 12:17:21;;;;;;;35.77;24.03;;;3.20;99.90;;;;;;5108214;28;20213;-74
2021/01/04 12:19:48;;;;;;;35.03;24.37;;;3.30;99.90;;;;;;5108135;28;20201;-73
2021/01/04 12:22:15;;;;;;;36.77;24.80;;;3.20;99.90;;;;;;5107589;28;20286;-74
2021/01/04 12:24:45;;;;;;;36.17;24.33;;;3.80;99.90;;;;;;5107371;28;20198;-75
2021/01/04 12:27:12;;;;;;;35.73;24.87;;;3.10;99.90;;;;;;5109522;28;20285;-74
2021/01/04 12:29:43;;;;;;;35.10;25.47;;;3.20;99.90;;;;;;5108911;28;20205;-73
2021/01/04 12:32:09;;;;;;;35.53;24.23;;;3.20;99.90;;;;;;5108754;28;20208;-73
2021/01/04 12:34:36;;;;;;;36.13;25.53;;;3.20;99.90;;;;;;5108522;28;20193;-72
2021/01/04 12:37:02;;;;;;;31.40;21.93;;;3.20;99.90;;;;;;5106102;28;20201;-72
2021/01/04 12:39:29;;;;;;;34.87;24.43;;;3.20;99.90;;;;;;5106948;28;21633;-74
2021/01/04 12:41:56;;;;;;;34.93;25.00;;;3.20;99.90;;;;;;5107505;28;20252;-73
2021/01/04 12:44:23;;;;;;;34.13;24.03;;;3.20;99.90;;;;;;5107505;28;20201;-74
2021/01/04 12:46:51;;;;;;;33.13;24.03;;;3.20;99.90;;;;;;5106977;28;20205;-74
2021/01/04 12:49:20;;;;;;;33.17;24.67;;;3.20;99.90;;;;;;5105570;28;20672;-76
2021/01/04 12:51:46;;;;;;;30.43;23.03;;;3.20;99.90;;;;;;5107146;28;20598;-74
2021/01/04 12:54:14;;;;;;;33.53;21.93;;;3.20;99.90;;;;;;5107449;28;20201;-75
2021/01/04 12:56:44;;;;;;;33.37;23.00;;;3.20;99.90;;;;;;5107000;28;20706;-73
2021/01/04 12:59:12;;;;;;;34.73;24.30;;;3.20;99.90;;;;;;5106949;28;20243;-73
2021/01/04 13:01:39;;;;;;;37.03;25.23;;;3.20;99.90;;;;;;5107392;28;20209;-72
2021/01/04 13:04:06;;;;;;;31.57;22.77;;;3.20;99.90;;;;;;5106851;28;20719;-72
2021/01/04 13:06:33;;;;;;;33.57;24.57;;;3.20;99.90;;;;;;5107515;28;20210;-73
2021/01/04 13:09:00;;;;;;;33.07;22.93;;;3.20;99.90;;;;;;5107141;28;20217;-74
2021/01/04 13:11:26;;;;;;;32.67;23.30;;;3.10;99.90;;;;;;5107176;28;20292;-74
2021/01/04 13:13:52;;;;;;;31.63;22.10;;;3.70;99.90;;;;;;5106692;28;20202;-73
2021/01/04 13:16:20;;;;;;;32.43;22.60;;;3.10;99.90;;;;;;5106819;28;20197;-73
2021/01/04 13:18:46;;;;;;;29.37;21.67;;;3.10;99.90;;;;;;5107657;28;20193;-74